sensor_id;sensor_type;location;lat;lon;timestamp;temperature;humidity
20528;DHT22;23612;50.894;10.700;2023-03-04T09:08:16;4.20;99.90
20528;DHT22;23612;50.894;10.700;2023-03-04T09:10:43;4.50;99.90
20528;DHT22;23612;50.894;10.700;2023-03-04T09:22:54;4.90;99.90
20528;DHT22;23612;50.894;10.700;2023-03-04T09:25:20;5.30;99.90
20528;DHT22;23612;50.894;10.700;2023-03-04T09:27:45;5.80;99.90
20528;DHT22;23612;50.894;10.700;2023-03-04T09:30:11;5.60;99.90
20528;DHT22;23612;50.894;10.700;2023-03-04T09:32:37;5.80;99.90
20528;DHT22;23612;50.894;10.700;2023-03-04T09:35:03;5.90;99.90
20528;DHT22;23612;50.894;10.700;2023-03-04T09:37:29;6.00;99.90
20528;DHT22;23612;50.894;10.700;2023-03-04T09:39:54;6.10;99.90
20528;DHT22;23612;50.894;10.700;2023-03-04T09:42:32;6.20;99.90
20528;DHT22;23612;50.894;10.700;2023-03-04T09:44:59;6.40;99.90
20528;DHT22;23612;50.894;10.700;2023-03-04T09:47:25;6.60;99.90
20528;DHT22;23612;50.894;10.700;2023-03-04T09:49:56;6.50;99.90
20528;DHT22;23612;50.894;10.700;2023-03-04T09:52:51;5.90;99.90
20528;DHT22;23612;50.894;10.700;2023-03-04T09:55:34;5.90;99.90
20528;DHT22;23612;50.894;10.700;2023-03-04T11:14:00;4.90;99.90
20528;DHT22;23612;50.894;10.700;2023-03-04T15:34:15;4.80;99.90
20528;DHT22;23612;50.894;10.700;2023-03-04T15:36:43;4.80;99.90
20528;DHT22;23612;50.894;10.700;2023-03-04T15:44:03;4.70;99.90
20528;DHT22;23612;50.894;10.700;2023-03-04T15:46:29;4.80;99.90
20528;DHT22;23612;50.894;10.700;2023-03-04T15:48:54;4.90;99.90
20528;DHT22;23612;50.894;10.700;2023-03-04T15:51:21;5.00;99.90
20528;DHT22;23612;50.894;10.700;2023-03-04T15:53:50;4.90;99.90
20528;DHT22;23612;50.894;10.700;2023-03-04T16:06:16;5.10;99.90
20528;DHT22;23612;50.894;10.700;2023-03-04T16:08:44;5.00;99.90
20528;DHT22;23612;50.894;10.700;2023-03-04T16:11:18;4.90;99.90
20528;DHT22;23612;50.894;10.700;2023-03-04T16:13:44;4.70;99.90
20528;DHT22;23612;50.894;10.700;2023-03-04T16:16:11;4.80;99.90
20528;DHT22;23612;50.894;10.700;2023-03-04T16:33:14;4.50;99.90
20528;DHT22;23612;50.894;10.700;2023-03-04T16:35:41;4.50;99.90
20528;DHT22;23612;50.894;10.700;2023-03-04T16:38:19;4.40;99.90
20528;DHT22;23612;50.894;10.700;2023-03-04T16:40:46;4.40;99.90
20528;DHT22;23612;50.894;10.700;2023-03-04T16:43:12;4.50;99.90
20528;DHT22;23612;50.894;10.700;2023-03-04T18:30:28;3.70;99.90
20528;DHT22;23612;50.894;10.700;2023-03-04T18:32:55;3.60;99.90
20528;DHT22;23612;50.894;10.700;2023-03-04T18:35:21;3.50;99.90
20528;DHT22;23612;50.894;10.700;2023-03-04T18:37:47;3.60;99.90
20528;DHT22;23612;50.894;10.700;2023-03-04T18:40:14;3.60;99.90
20528;DHT22;23612;50.894;10.700;2023-03-04T18:42:40;3.60;99.90
20528;DHT22;23612;50.894;10.700;2023-03-04T18:45:09;3.70;99.90
20528;DHT22;23612;50.894;10.700;2023-03-04T18:47:35;3.70;99.90
20528;DHT22;23612;50.894;10.700;2023-03-04T18:50:01;3.70;99.90
20528;DHT22;23612;50.894;10.700;2023-03-04T18:52:27;3.70;99.90
20528;DHT22;23612;50.894;10.700;2023-03-04T18:54:52;3.70;99.90
20528;DHT22;23612;50.894;10.700;2023-03-04T18:57:18;3.60;99.90
20528;DHT22;23612;50.894;10.700;2023-03-04T18:59:48;3.60;99.90
20528;DHT22;23612;50.894;10.700;2023-03-04T19:03:05;3.60;99.90
20528;DHT22;23612;50.894;10.700;2023-03-04T19:05:16;3.60;99.90
20528;DHT22;23612;50.894;10.700;2023-03-04T19:07:43;3.60;99.90
20528;DHT22;23612;50.894;10.700;2023-03-04T19:10:09;3.50;99.90
20528;DHT22;23612;50.894;10.700;2023-03-04T19:12:36;3.40;99.90
20528;DHT22;23612;50.894;10.700;2023-03-04T19:15:02;3.40;99.90
20528;DHT22;23612;50.894;10.700;2023-03-04T19:44:16;3.50;99.90
20528;DHT22;23612;50.894;10.700;2023-03-04T19:46:42;3.50;99.90
20528;DHT22;23612;50.894;10.700;2023-03-04T19:49:07;3.40;99.90
20528;DHT22;23612;50.894;10.700;2023-03-04T19:51:34;3.50;99.90
20528;DHT22;23612;50.894;10.700;2023-03-04T19:54:00;3.50;99.90
20528;DHT22;23612;50.894;10.700;2023-03-04T19:56:26;3.50;99.90
20528;DHT22;23612;50.894;10.700;2023-03-04T19:58:53;3.50;99.90
20528;DHT22;23612;50.894;10.700;2023-03-04T20:01:23;3.40;99.90
20528;DHT22;23612;50.894;10.700;2023-03-04T20:03:56;3.50;99.90
20528;DHT22;23612;50.894;10.700;2023-03-04T20:33:13;3.20;99.90
20528;DHT22;23612;50.894;10.700;2023-03-04T20:35:39;3.10;99.90
20528;DHT22;23612;50.894;10.700;2023-03-04T20:38:05;3.10;99.90
20528;DHT22;23612;50.894;10.700;2023-03-04T20:40:31;3.00;99.90
20528;DHT22;23612;50.894;10.700;2023-03-04T20:42:57;2.90;99.90
20528;DHT22;23612;50.894;10.700;2023-03-04T20:45:22;2.90;99.90
20528;DHT22;23612;50.894;10.700;2023-03-04T20:47:49;2.90;99.90
20528;DHT22;23612;50.894;10.700;2023-03-04T20:50:14;2.80;99.90
20528;DHT22;23612;50.894;10.700;2023-03-04T20:52:40;2.80;99.90
20528;DHT22;23612;50.894;10.700;2023-03-04T20:55:07;2.80;99.90
20528;DHT22;23612;50.894;10.700;2023-03-04T20:57:32;2.80;99.90
20528;DHT22;23612;50.894;10.700;2023-03-04T20:59:58;2.70;99.90
20528;DHT22;23612;50.894;10.700;2023-03-04T21:02:23;2.70;99.90
20528;DHT22;23612;50.894;10.700;2023-03-04T21:04:49;2.70;99.90
20528;DHT22;23612;50.894;10.700;2023-03-04T21:07:15;2.80;99.90
20528;DHT22;23612;50.894;10.700;2023-03-04T21:09:40;2.80;99.90
20528;DHT22;23612;50.894;10.700;2023-03-04T21:12:06;2.70;99.90
20528;DHT22;23612;50.894;10.700;2023-03-04T21:14:32;2.70;99.90
20528;DHT22;23612;50.894;10.700;2023-03-04T21:17:02;2.60;99.90
20528;DHT22;23612;50.894;10.700;2023-03-04T21:19:31;2.70;99.90
20528;DHT22;23612;50.894;10.700;2023-03-04T21:21:58;2.60;99.90
20528;DHT22;23612;50.894;10.700;2023-03-04T21:24:27;2.60;99.90
20528;DHT22;23612;50.894;10.700;2023-03-04T21:26:53;2.60;99.90
20528;DHT22;23612;50.894;10.700;2023-03-04T21:29:20;2.60;99.90
20528;DHT22;23612;50.894;10.700;2023-03-04T21:31:49;2.70;99.90
20528;DHT22;23612;50.894;10.700;2023-03-04T21:34:18;2.60;99.90
20528;DHT22;23612;50.894;10.700;2023-03-04T21:36:45;2.60;99.90
20528;DHT22;23612;50.894;10.700;2023-03-04T21:39:14;2.50;99.90
20528;DHT22;23612;50.894;10.700;2023-03-04T21:41:41;2.60;99.90
20528;DHT22;23612;50.894;10.700;2023-03-04T21:44:06;2.60;99.90
20528;DHT22;23612;50.894;10.700;2023-03-04T21:46:32;2.60;99.90
20528;DHT22;23612;50.894;10.700;2023-03-04T21:48:57;2.70;99.90
20528;DHT22;23612;50.894;10.700;2023-03-04T21:51:23;2.60;99.90
20528;DHT22;23612;50.894;10.700;2023-03-04T21:53:48;2.60;99.90
20528;DHT22;23612;50.894;10.700;2023-03-04T21:56:14;2.50;99.90
20528;DHT22;23612;50.894;10.700;2023-03-04T21:58:40;2.50;99.90
20528;DHT22;23612;50.894;10.700;2023-03-04T22:01:13;2.50;99.90
20528;DHT22;23612;50.894;10.700;2023-03-04T22:03:39;2.60;99.90
20528;DHT22;23612;50.894;10.700;2023-03-04T22:06:07;2.50;99.90
20528;DHT22;23612;50.894;10.700;2023-03-04T22:08:33;2.50;99.90
20528;DHT22;23612;50.894;10.700;2023-03-04T22:11:02;2.60;99.90
20528;DHT22;23612;50.894;10.700;2023-03-04T22:13:28;2.60;99.90
20528;DHT22;23612;50.894;10.700;2023-03-04T22:15:55;2.70;99.90
20528;DHT22;23612;50.894;10.700;2023-03-04T22:18:22;2.70;99.90
20528;DHT22;23612;50.894;10.700;2023-03-04T22:20:47;2.70;99.90
20528;DHT22;23612;50.894;10.700;2023-03-04T22:23:13;2.70;99.90
20528;DHT22;23612;50.894;10.700;2023-03-04T22:25:40;2.70;99.90
20528;DHT22;23612;50.894;10.700;2023-03-04T22:28:06;2.70;99.90
20528;DHT22;23612;50.894;10.700;2023-03-04T22:30:33;2.50;99.90
20528;DHT22;23612;50.894;10.700;2023-03-04T22:32:58;2.40;99.90
20528;DHT22;23612;50.894;10.700;2023-03-04T22:35:24;2.30;99.90
20528;DHT22;23612;50.894;10.700;2023-03-04T22:37:50;2.30;99.90
20528;DHT22;23612;50.894;10.700;2023-03-04T22:40:15;2.20;99.90
20528;DHT22;23612;50.894;10.700;2023-03-04T22:42:42;2.20;99.90
20528;DHT22;23612;50.894;10.700;2023-03-04T22:45:09;2.20;99.90
20528;DHT22;23612;50.894;10.700;2023-03-04T22:47:34;2.20;99.90
20528;DHT22;23612;50.894;10.700;2023-03-04T22:50:00;2.30;99.90
20528;DHT22;23612;50.894;10.700;2023-03-04T22:52:25;2.30;99.90
20528;DHT22;23612;50.894;10.700;2023-03-04T22:54:51;2.30;99.90
20528;DHT22;23612;50.894;10.700;2023-03-04T22:57:17;2.30;99.90
20528;DHT22;23612;50.894;10.700;2023-03-04T22:59:42;2.40;99.90
20528;DHT22;23612;50.894;10.700;2023-03-04T23:02:08;2.50;99.90
20528;DHT22;23612;50.894;10.700;2023-03-04T23:04:33;2.60;99.90
20528;DHT22;23612;50.894;10.700;2023-03-04T23:06:59;2.40;99.90
20528;DHT22;23612;50.894;10.700;2023-03-04T23:09:24;2.40;99.90
20528;DHT22;23612;50.894;10.700;2023-03-04T23:11:50;2.30;99.90
20528;DHT22;23612;50.894;10.700;2023-03-04T23:14:15;2.30;99.90
20528;DHT22;23612;50.894;10.700;2023-03-04T23:16:41;2.20;99.90
20528;DHT22;23612;50.894;10.700;2023-03-04T23:19:10;2.30;99.90
20528;DHT22;23612;50.894;10.700;2023-03-04T23:21:37;2.30;99.90
20528;DHT22;23612;50.894;10.700;2023-03-04T23:24:04;2.20;99.90
20528;DHT22;23612;50.894;10.700;2023-03-04T23:26:32;2.20;99.90
20528;DHT22;23612;50.894;10.700;2023-03-04T23:29:00;2.20;99.90
20528;DHT22;23612;50.894;10.700;2023-03-04T23:31:30;2.10;99.90
20528;DHT22;23612;50.894;10.700;2023-03-04T23:33:56;2.00;99.90
20528;DHT22;23612;50.894;10.700;2023-03-04T23:36:25;2.00;99.90
20528;DHT22;23612;50.894;10.700;2023-03-04T23:38:51;2.00;99.90
20528;DHT22;23612;50.894;10.700;2023-03-04T23:41:18;1.90;99.90
20528;DHT22;23612;50.894;10.700;2023-03-04T23:43:46;2.00;99.90
20528;DHT22;23612;50.894;10.700;2023-03-04T23:46:11;1.90;99.90
20528;DHT22;23612;50.894;10.700;2023-03-04T23:48:37;1.90;99.90
20528;DHT22;23612;50.894;10.700;2023-03-04T23:51:03;2.00;99.90
20528;DHT22;23612;50.894;10.700;2023-03-04T23:53:29;2.00;99.90
20528;DHT22;23612;50.894;10.700;2023-03-04T23:55:55;2.00;99.90
20528;DHT22;23612;50.894;10.700;2023-03-04T23:58:20;2.00;99.90
